createdAt,value
2023-05-01T00:01:00.971Z,0.50
2023-05-01T00:03:28.688Z,0.80
2023-05-01T00:05:59.849Z,0.50
2023-05-01T00:08:27.494Z,0.40
2023-05-01T00:10:55.171Z,0.60
2023-05-01T00:13:24.002Z,0.70
2023-05-01T00:15:51.908Z,0.70
2023-05-01T00:18:19.657Z,0.70
2023-05-01T00:20:47.882Z,0.80
2023-05-01T00:23:18.874Z,0.60
2023-05-01T00:25:46.067Z,0.70
2023-05-01T00:28:12.961Z,0.70
2023-05-01T00:30:40.372Z,0.80
2023-05-01T00:33:08.167Z,0.70
2023-05-01T00:35:35.330Z,1.00
2023-05-01T00:38:02.931Z,0.70
2023-05-01T00:40:30.353Z,0.70
2023-05-01T00:42:58.000Z,0.80
2023-05-01T00:45:24.885Z,1.00
2023-05-01T00:47:52.409Z,0.80
2023-05-01T00:50:19.960Z,0.80
2023-05-01T00:52:47.042Z,0.90
2023-05-01T00:55:14.510Z,0.80
2023-05-01T00:57:41.530Z,0.80
2023-05-01T01:00:12.017Z,0.70
2023-05-01T01:02:40.440Z,0.80
2023-05-01T01:05:10.189Z,0.80
2023-05-01T01:07:46.715Z,0.70
2023-05-01T01:10:47.293Z,0.60
2023-05-01T01:16:04.327Z,0.80
2023-05-01T01:18:44.410Z,0.50
2023-05-01T01:21:15.961Z,0.50
2023-05-01T01:23:53.540Z,0.60
2023-05-01T01:26:32.744Z,0.70
2023-05-01T01:29:07.419Z,0.60
2023-05-01T01:31:52.037Z,0.60
2023-05-01T01:34:27.365Z,0.80
2023-05-01T01:37:02.203Z,0.70
2023-05-01T01:39:42.007Z,0.40
2023-05-01T01:42:10.100Z,0.60
2023-05-01T01:44:48.472Z,0.50
2023-05-01T01:47:15.380Z,0.60
2023-05-01T01:49:46.133Z,0.70
2023-05-01T01:52:14.394Z,0.70
2023-05-01T01:54:44.769Z,0.50
2023-05-01T01:57:13.171Z,0.80
2023-05-01T01:59:40.149Z,0.60
2023-05-01T02:02:07.163Z,0.50
2023-05-01T02:04:35.176Z,0.60
2023-05-01T02:09:31.251Z,0.50
2023-05-01T02:11:58.677Z,0.60
2023-05-01T02:14:26.395Z,0.70
2023-05-01T02:16:53.444Z,0.80
2023-05-01T02:19:22.233Z,0.70
2023-05-01T02:21:49.477Z,1.00
2023-05-01T02:24:17.772Z,1.10
2023-05-01T02:26:49.181Z,1.00
2023-05-01T02:29:16.397Z,0.90
2023-05-01T02:31:43.763Z,1.10
2023-05-01T02:34:11.019Z,1.30
2023-05-01T02:36:38.599Z,1.30
2023-05-01T02:39:06.765Z,1.20
2023-05-01T02:41:34.880Z,1.10
2023-05-01T02:44:04.289Z,1.40
2023-05-01T02:46:32.875Z,1.30
2023-05-01T02:49:00.995Z,1.30
2023-05-01T02:51:28.988Z,1.40
2023-05-01T02:53:55.884Z,1.80
2023-05-01T02:56:23.749Z,1.20
2023-05-01T02:58:50.897Z,1.20
2023-05-01T03:01:18.870Z,1.30
2023-05-01T03:03:46.309Z,1.40
2023-05-01T03:06:16.423Z,1.00
2023-05-01T03:08:43.938Z,1.20
2023-05-01T03:11:11.086Z,1.30
2023-05-01T03:13:38.015Z,1.60
2023-05-01T03:16:05.958Z,1.30
2023-05-01T03:18:33.045Z,2.10
2023-05-01T03:21:00.158Z,1.40
2023-05-01T03:23:28.038Z,2.30
2023-05-01T03:25:55.083Z,1.20
2023-05-01T03:28:23.141Z,1.00
2023-05-01T03:30:53.329Z,1.40
2023-05-01T03:33:21.484Z,1.50
2023-05-01T03:35:50.840Z,1.50
2023-05-01T03:38:17.989Z,1.50
2023-05-01T03:41:19.554Z,1.60
2023-05-01T03:44:05.996Z,1.40
2023-05-01T03:46:41.483Z,1.50
2023-05-01T03:49:10.750Z,1.70
2023-05-01T03:51:45.935Z,1.50
2023-05-01T03:54:13.628Z,2.00
2023-05-01T03:57:01.331Z,1.90
2023-05-01T03:59:28.259Z,2.10
2023-05-01T04:01:55.735Z,1.70
2023-05-01T04:04:24.312Z,1.70
2023-05-01T04:06:56.594Z,3.20
2023-05-01T04:09:23.737Z,1.40
2023-05-01T04:11:50.773Z,1.50
2023-05-01T04:14:17.661Z,1.30
2023-05-01T04:16:45.141Z,1.40
2023-05-01T04:19:12.620Z,1.70
2023-05-01T04:21:41.898Z,1.30
2023-05-01T04:24:09.906Z,1.50
2023-05-01T04:26:36.787Z,1.60
2023-05-01T04:29:04.240Z,1.00
2023-05-01T04:31:31.190Z,1.10
2023-05-01T04:33:58.701Z,1.50
2023-05-01T04:36:27.490Z,1.60
2023-05-01T04:38:54.547Z,1.20
2023-05-01T04:41:22.000Z,1.50
2023-05-01T04:43:49.552Z,1.50
2023-05-01T04:46:18.774Z,1.50
2023-05-01T04:48:46.205Z,1.00
2023-05-01T04:51:13.357Z,1.10
2023-05-01T04:53:41.427Z,1.60
2023-05-01T04:56:17.134Z,1.20
2023-05-01T04:58:44.961Z,1.60
2023-05-01T05:01:14.914Z,1.80
2023-05-01T05:03:42.675Z,1.50
2023-05-01T05:06:11.155Z,1.30
2023-05-01T05:08:38.107Z,1.40
2023-05-01T05:11:10.431Z,1.20
2023-05-01T05:13:57.149Z,1.60
2023-05-01T05:16:24.842Z,1.90
2023-05-01T05:18:54.945Z,1.60
2023-05-01T05:21:22.244Z,1.10
2023-05-01T05:23:52.531Z,1.40
2023-05-01T05:26:19.708Z,1.10
2023-05-01T05:28:47.894Z,2.60
2023-05-01T05:31:14.973Z,2.70
2023-05-01T05:33:42.654Z,3.60
2023-05-01T05:36:10.058Z,4.40
2023-05-01T05:38:40.810Z,4.40
2023-05-01T05:41:09.865Z,5.30
2023-05-01T05:43:36.828Z,5.70
2023-05-01T05:46:04.639Z,6.00
2023-05-01T05:48:33.237Z,6.50
2023-05-01T05:51:00.587Z,7.20
2023-05-01T05:53:27.517Z,7.00
2023-05-01T05:55:55.469Z,7.10
2023-05-01T05:58:24.178Z,5.90
2023-05-01T06:00:52.748Z,7.30
2023-05-01T06:03:20.822Z,6.40
2023-05-01T06:05:48.193Z,7.80
2023-05-01T06:08:16.558Z,8.70
2023-05-01T06:10:43.510Z,8.40
2023-05-01T06:13:14.052Z,7.30
2023-05-01T06:15:46.334Z,7.60
2023-05-01T06:18:13.486Z,6.30
2023-05-01T06:20:40.645Z,6.10
2023-05-01T06:23:09.602Z,5.60
2023-05-01T06:25:55.669Z,5.70
2023-05-01T06:28:22.998Z,4.70
2023-05-01T06:30:50.499Z,4.50
2023-05-01T06:33:18.869Z,4.90
2023-05-01T06:35:46.448Z,4.60
2023-05-01T06:38:13.888Z,4.40
2023-05-01T06:40:41.145Z,3.30
2023-05-01T06:43:08.079Z,3.40
2023-05-01T06:45:35.332Z,2.70
2023-05-01T06:48:02.346Z,2.20
2023-05-01T06:50:29.934Z,2.80
2023-05-01T06:52:59.438Z,1.60
2023-05-01T06:55:26.913Z,2.20
2023-05-01T06:57:54.004Z,2.60
2023-05-01T07:00:21.402Z,2.30
2023-05-01T07:02:48.799Z,1.80
2023-05-01T07:05:15.907Z,1.60
2023-05-01T07:07:50.455Z,1.60
2023-05-01T07:10:21.369Z,1.80
2023-05-01T07:12:48.646Z,1.70
2023-05-01T07:15:16.081Z,1.60
2023-05-01T07:17:44.078Z,1.50
2023-05-01T07:20:12.074Z,1.30
2023-05-01T07:22:39.219Z,1.60
2023-05-01T07:25:06.776Z,1.40
2023-05-01T07:27:34.558Z,1.60
2023-05-01T07:30:03.283Z,2.00
2023-05-01T07:32:32.627Z,2.10
2023-05-01T07:35:00.245Z,2.00
2023-05-01T07:37:28.413Z,2.30
2023-05-01T07:39:56.937Z,2.10
2023-05-01T07:42:24.066Z,2.20
2023-05-01T07:44:51.368Z,1.80
2023-05-01T07:47:18.947Z,2.00
2023-05-01T07:49:46.411Z,1.60
2023-05-01T07:52:14.910Z,1.20
2023-05-01T07:54:42.334Z,1.40
2023-05-01T07:57:11.043Z,1.40
2023-05-01T07:59:38.400Z,1.60
2023-05-01T08:02:05.678Z,1.00
2023-05-01T08:04:32.920Z,0.90
2023-05-01T08:06:59.937Z,1.50
2023-05-01T08:09:26.931Z,1.20
2023-05-01T08:11:55.901Z,1.40
2023-05-01T08:14:23.252Z,1.70
2023-05-01T08:16:54.652Z,2.20
2023-05-01T08:19:21.668Z,2.60
2023-05-01T08:21:48.792Z,2.50
2023-05-01T08:24:15.934Z,1.60
2023-05-01T08:26:43.015Z,1.20
2023-05-01T08:29:10.684Z,0.90
2023-05-01T08:31:38.743Z,0.70
2023-05-01T08:34:05.818Z,0.70
2023-05-01T08:36:33.430Z,1.00
2023-05-01T08:39:00.904Z,0.80
2023-05-01T08:41:28.459Z,0.90
2023-05-01T08:43:56.556Z,1.10
2023-05-01T08:46:38.599Z,0.90
2023-05-01T08:49:06.441Z,0.60
2023-05-01T08:51:34.181Z,0.60
2023-05-01T08:54:01.913Z,2.60
2023-05-01T08:56:29.574Z,1.10
2023-05-01T08:58:57.948Z,1.40
2023-05-01T09:01:24.931Z,1.50
2023-05-01T09:03:52.345Z,1.60
2023-05-01T09:06:19.979Z,1.30
2023-05-01T09:08:47.221Z,0.80
2023-05-01T09:11:16.507Z,0.50
2023-05-01T09:13:44.438Z,0.70
2023-05-01T09:16:11.435Z,0.50
2023-05-01T09:18:40.513Z,0.50
2023-05-01T09:21:08.052Z,0.50
2023-05-01T09:23:37.120Z,0.60
2023-05-01T09:26:07.356Z,0.70
2023-05-01T09:28:43.325Z,0.90
2023-05-01T09:31:29.717Z,0.90
2023-05-01T09:34:18.071Z,0.70
2023-05-01T09:36:47.072Z,0.80
2023-05-01T09:39:17.075Z,0.70
2023-05-01T09:41:52.048Z,0.60
2023-05-01T09:44:19.558Z,0.60
2023-05-01T09:46:49.532Z,0.50
2023-05-01T09:49:18.133Z,0.90
2023-05-01T09:51:45.933Z,0.80
2023-05-01T09:54:19.520Z,0.70
2023-05-01T09:56:47.476Z,1.30
2023-05-01T09:59:16.744Z,2.10
2023-05-01T10:01:46.636Z,3.20
2023-05-01T10:04:16.347Z,3.50
2023-05-01T10:06:44.587Z,4.30
2023-05-01T10:09:18.683Z,4.50
2023-05-01T10:11:55.529Z,4.40
2023-05-01T10:14:27.714Z,4.40
2023-05-01T10:17:04.456Z,4.20
2023-05-01T10:19:41.881Z,3.20
2023-05-01T10:22:09.105Z,2.50
2023-05-01T10:24:47.874Z,1.80
2023-05-01T10:27:16.578Z,1.90
2023-05-01T10:29:46.802Z,2.00
2023-05-01T10:32:16.123Z,2.30
2023-05-01T10:34:51.405Z,2.90
2023-05-01T10:37:39.468Z,2.10
2023-05-01T10:40:39.514Z,2.10
2023-05-01T10:43:28.262Z,2.50
2023-05-01T10:46:31.297Z,3.10
2023-05-01T10:48:58.938Z,2.50
2023-05-01T10:51:28.079Z,1.80
2023-05-01T10:54:27.821Z,2.80
2023-05-01T10:57:00.714Z,2.50
2023-05-01T11:00:01.353Z,1.20
2023-05-01T11:02:29.949Z,1.20
2023-05-01T11:04:57.343Z,1.50
2023-05-01T11:07:26.572Z,1.30
2023-05-01T11:09:54.869Z,1.00
2023-05-01T11:12:50.909Z,0.90
2023-05-01T11:15:28.743Z,1.40
2023-05-01T11:18:00.267Z,1.00
2023-05-01T11:20:31.036Z,0.90
2023-05-01T11:22:59.210Z,0.70
2023-05-01T11:25:29.977Z,0.80
2023-05-01T11:27:59.166Z,0.70
2023-05-01T11:30:26.524Z,1.00
2023-05-01T11:32:54.455Z,0.70
2023-05-01T11:35:25.749Z,0.60
2023-05-01T11:37:56.698Z,0.60
2023-05-01T11:40:35.197Z,0.70
2023-05-01T11:43:08.878Z,1.00
2023-05-01T11:45:37.089Z,0.70
2023-05-01T11:48:05.845Z,0.50
2023-05-01T11:50:36.387Z,0.60
2023-05-01T11:53:11.491Z,0.80
2023-05-01T11:55:39.732Z,0.80
2023-05-01T11:58:07.328Z,0.90
2023-05-01T12:00:38.949Z,0.90
2023-05-01T12:03:10.318Z,1.10
2023-05-01T12:05:43.758Z,0.90
2023-05-01T12:08:23.320Z,0.90
2023-05-01T12:10:55.606Z,0.70
2023-05-01T12:13:27.450Z,0.70
2023-05-01T12:15:56.526Z,1.00
2023-05-01T12:18:23.538Z,1.40
2023-05-01T12:21:03.035Z,1.30
2023-05-01T12:23:35.346Z,1.60
2023-05-01T12:26:02.957Z,1.30
2023-05-01T12:28:30.576Z,1.30
2023-05-01T12:31:05.162Z,1.90
2023-05-01T12:33:33.256Z,1.30
2023-05-01T12:36:11.741Z,1.40
2023-05-01T12:38:39.032Z,1.40
2023-05-01T12:41:08.312Z,2.10
2023-05-01T12:43:37.295Z,1.30
2023-05-01T12:46:07.244Z,1.40
2023-05-01T12:48:39.590Z,1.30
2023-05-01T12:51:07.325Z,1.30
2023-05-01T12:53:34.912Z,1.50
2023-05-01T12:56:02.920Z,1.50
2023-05-01T12:58:36.706Z,1.50
2023-05-01T13:01:03.912Z,1.60
2023-05-01T13:03:33.793Z,1.30
2023-05-01T13:06:02.700Z,1.50
2023-05-01T13:08:41.118Z,1.60
2023-05-01T13:11:16.553Z,1.40
2023-05-01T13:13:44.616Z,1.40
2023-05-01T13:16:15.609Z,1.20
2023-05-01T13:18:47.049Z,1.50
2023-05-01T13:21:15.985Z,1.50
2023-05-01T13:23:52.301Z,1.30
2023-05-01T13:26:35.314Z,1.70
2023-05-01T13:29:06.039Z,1.60
2023-05-01T13:31:34.298Z,1.70
2023-05-01T13:34:01.915Z,1.50
2023-05-01T13:36:32.942Z,1.60
2023-05-01T13:39:02.734Z,2.10
2023-05-01T13:41:29.991Z,1.80
2023-05-01T13:46:27.279Z,1.80
2023-05-01T13:48:55.833Z,1.60
2023-05-01T13:51:24.833Z,1.60
2023-05-01T13:53:54.188Z,1.70
2023-05-01T13:56:21.902Z,1.70
2023-05-01T13:58:50.513Z,1.60
2023-05-01T14:01:20.562Z,1.70
2023-05-01T14:03:48.485Z,1.40
2023-05-01T14:06:17.507Z,2.10
2023-05-01T14:08:45.842Z,2.10
2023-05-01T14:11:13.602Z,1.40
2023-05-01T14:13:42.644Z,1.60
2023-05-01T14:16:22.955Z,1.60
2023-05-01T14:18:52.952Z,1.80
2023-05-01T14:21:20.389Z,1.90
2023-05-01T14:23:47.808Z,1.80
2023-05-01T14:26:26.848Z,2.00
2023-05-01T14:28:55.165Z,2.00
2023-05-01T14:33:59.784Z,2.00
2023-05-01T14:36:31.289Z,1.70
2023-05-01T14:38:59.772Z,1.80
2023-05-01T14:41:26.959Z,2.10
2023-05-01T14:43:55.076Z,2.20
2023-05-01T14:46:31.390Z,2.10
2023-05-01T14:48:59.681Z,1.80
2023-05-01T14:51:28.064Z,1.70
2023-05-01T14:53:57.637Z,2.20
2023-05-01T14:56:24.924Z,1.60
2023-05-01T14:58:55.778Z,2.00
2023-05-01T15:01:29.352Z,1.80
2023-05-01T15:04:00.524Z,2.50
2023-05-01T15:06:29.894Z,2.10
2023-05-01T15:08:57.194Z,1.70
2023-05-01T15:11:26.296Z,1.70
2023-05-01T15:13:54.935Z,1.70
2023-05-01T15:16:22.458Z,1.80
2023-05-01T15:18:50.569Z,2.40
2023-05-01T15:21:19.675Z,1.80
2023-05-01T15:24:03.860Z,1.70
2023-05-01T15:26:31.275Z,2.60
2023-05-01T15:28:59.180Z,2.10
2023-05-01T15:31:27.269Z,1.60
2023-05-01T15:33:55.574Z,2.10
2023-05-01T15:36:23.313Z,2.30
2023-05-01T15:38:51.156Z,2.10
2023-05-01T15:41:59.565Z,1.80
2023-05-01T15:44:43.196Z,1.90
2023-05-01T15:47:11.577Z,1.60
2023-05-01T15:49:41.727Z,2.00
2023-05-01T15:52:38.064Z,2.10
2023-05-01T15:55:48.327Z,2.10
2023-05-01T15:59:11.805Z,1.90
2023-05-01T16:05:07.663Z,1.70
2023-05-01T16:08:42.293Z,2.40
2023-05-01T16:11:32.462Z,2.60
2023-05-01T16:14:02.752Z,2.30
2023-05-01T16:17:45.975Z,2.50
2023-05-01T16:20:40.721Z,2.70
2023-05-01T16:23:52.363Z,2.20
2023-05-01T16:27:09.615Z,1.70
2023-05-01T16:30:42.855Z,2.20
2023-05-01T16:34:19.591Z,2.30
2023-05-01T16:36:50.650Z,2.90
2023-05-01T16:39:19.580Z,2.40
2023-05-01T16:41:48.762Z,1.80
2023-05-01T16:44:22.473Z,2.20
2023-05-01T16:47:03.692Z,2.70
2023-05-01T16:49:58.410Z,2.30
2023-05-01T16:53:57.004Z,3.00
2023-05-01T16:57:10.461Z,2.70
2023-05-01T17:00:45.464Z,2.70
2023-05-01T17:04:04.539Z,2.10
2023-05-01T17:06:34.865Z,2.30
2023-05-01T17:09:11.006Z,2.20
2023-05-01T17:12:16.193Z,2.10
2023-05-01T17:15:13.463Z,2.20
2023-05-01T17:18:59.932Z,2.10
2023-05-01T17:22:29.258Z,1.90
2023-05-01T17:25:43.587Z,2.10
2023-05-01T17:29:32.891Z,3.10
2023-05-01T17:32:40.829Z,2.50
2023-05-01T17:35:45.552Z,2.00
2023-05-01T17:39:04.213Z,2.10
2023-05-01T17:41:53.223Z,1.80
2023-05-01T17:44:53.573Z,2.20
2023-05-01T17:48:00.952Z,2.20
2023-05-01T17:51:28.781Z,2.30
2023-05-01T17:54:24.677Z,2.80
2023-05-01T17:57:58.973Z,3.00
2023-05-01T18:00:28.605Z,3.50
2023-05-01T18:03:35.194Z,2.90
2023-05-01T18:06:08.189Z,3.60
2023-05-01T18:08:47.761Z,2.60
2023-05-01T18:11:37.945Z,7.70
2023-05-01T18:14:09.335Z,7.90
2023-05-01T18:16:50.056Z,6.00
2023-05-01T18:20:14.112Z,5.30
2023-05-01T18:23:14.002Z,4.80
2023-05-01T18:26:08.802Z,4.80
2023-05-01T18:29:26.292Z,5.30
2023-05-01T18:32:01.049Z,3.60
2023-05-01T18:34:36.751Z,4.40
2023-05-01T18:40:48.257Z,3.00
2023-05-01T18:43:42.578Z,3.20
2023-05-01T18:46:12.723Z,3.30
2023-05-01T18:49:02.706Z,3.30
2023-05-01T18:51:51.606Z,3.40
2023-05-01T18:54:50.539Z,3.60
2023-05-01T18:57:52.265Z,11.80
2023-05-01T19:00:56.622Z,8.20
2023-05-01T19:03:46.888Z,8.40
2023-05-01T19:06:58.525Z,4.30
2023-05-01T19:09:28.416Z,4.10
2023-05-01T19:12:23.496Z,4.30
2023-05-01T19:15:47.844Z,9.70
2023-05-01T19:18:38.182Z,5.70
2023-05-01T19:21:41.451Z,5.50
2023-05-01T19:24:34.052Z,5.40
2023-05-01T19:27:18.395Z,4.40
2023-05-01T19:30:15.948Z,4.90
2023-05-01T19:33:21.382Z,7.60
2023-05-01T19:35:54.545Z,7.30
2023-05-01T19:38:22.858Z,7.30
2023-05-01T19:40:52.041Z,6.40
2023-05-01T19:43:19.865Z,7.50
2023-05-01T19:46:09.921Z,6.90
2023-05-01T19:48:43.096Z,13.40
2023-05-01T19:51:14.778Z,12.70
2023-05-01T19:54:17.727Z,13.10
2023-05-01T19:57:43.902Z,12.40
2023-05-01T20:00:57.625Z,16.10
2023-05-01T20:04:35.763Z,30.50
2023-05-01T20:08:07.316Z,24.70
2023-05-01T20:10:34.736Z,21.40
2023-05-01T20:13:31.848Z,16.50
2023-05-01T20:16:33.868Z,16.40
2023-05-01T20:19:01.398Z,15.10
2023-05-01T20:22:08.680Z,17.30
2023-05-01T20:24:39.832Z,17.00
2023-05-01T20:28:04.173Z,17.70
2023-05-01T20:31:07.086Z,12.80
2023-05-01T20:33:36.438Z,11.90
2023-05-01T20:36:25.367Z,11.30
2023-05-01T20:39:14.470Z,10.60
2023-05-01T20:41:58.867Z,10.50
2023-05-01T20:45:08.188Z,11.20
2023-05-01T20:48:00.253Z,11.60
2023-05-01T20:51:09.786Z,10.70
2023-05-01T20:53:40.724Z,11.40
2023-05-01T20:56:30.131Z,10.80
2023-05-01T20:59:00.177Z,10.40
2023-05-01T21:02:10.265Z,10.50
2023-05-01T21:04:58.000Z,10.00
2023-05-01T21:07:43.681Z,9.00
2023-05-01T21:10:14.466Z,8.80
2023-05-01T21:12:59.703Z,8.60
2023-05-01T21:15:51.234Z,15.00
2023-05-01T21:19:01.049Z,10.80
2023-05-01T21:21:54.996Z,12.10
2023-05-01T21:24:24.638Z,19.90
2023-05-01T21:26:57.352Z,11.20
2023-05-01T21:29:25.445Z,10.10
2023-05-01T21:32:02.765Z,10.60
2023-05-01T21:34:38.573Z,9.70
2023-05-01T21:37:08.476Z,10.40
2023-05-01T21:39:36.284Z,10.30
2023-05-01T21:42:05.369Z,9.90
2023-05-01T21:44:32.404Z,8.30
2023-05-01T21:47:01.182Z,10.20
2023-05-01T21:49:52.090Z,9.10
2023-05-01T21:52:25.326Z,10.10
2023-05-01T21:54:55.363Z,8.90
2023-05-01T21:57:44.146Z,9.60
2023-05-01T22:00:20.632Z,10.40
2023-05-01T22:03:09.308Z,10.00
2023-05-01T22:05:40.596Z,10.10
2023-05-01T22:08:08.515Z,9.30
2023-05-01T22:10:37.834Z,9.50
2023-05-01T22:13:07.560Z,9.20
2023-05-01T22:15:42.935Z,10.60
2023-05-01T22:18:10.755Z,10.80
2023-05-01T22:20:38.264Z,10.90
2023-05-01T22:23:07.208Z,10.50
2023-05-01T22:25:34.208Z,10.50
2023-05-01T22:28:04.008Z,10.60
2023-05-01T22:30:44.751Z,11.20
2023-05-01T22:33:12.032Z,11.50
2023-05-01T22:35:40.066Z,10.80
2023-05-01T22:38:50.430Z,11.50
2023-05-01T22:41:37.324Z,10.20
2023-05-01T22:44:22.476Z,12.10
2023-05-01T22:46:53.163Z,9.90
2023-05-01T22:49:23.808Z,10.30
2023-05-01T22:52:10.085Z,10.70
2023-05-01T22:54:58.058Z,10.80
2023-05-01T22:57:46.053Z,10.50
2023-05-01T23:00:36.077Z,9.90
2023-05-01T23:03:24.095Z,11.10
2023-05-01T23:05:53.479Z,10.60
2023-05-01T23:09:02.637Z,10.20
2023-05-01T23:11:53.932Z,8.90
2023-05-01T23:14:26.718Z,8.50
2023-05-01T23:17:22.631Z,11.10
2023-05-01T23:20:34.027Z,11.10
2023-05-01T23:23:05.303Z,8.60
2023-05-01T23:25:55.493Z,7.90
2023-05-01T23:29:00.055Z,8.00
2023-05-01T23:31:31.361Z,7.20
2023-05-01T23:34:04.280Z,9.60
2023-05-01T23:36:33.972Z,9.90
2023-05-01T23:39:02.744Z,10.00
2023-05-01T23:41:30.283Z,9.40
2023-05-01T23:44:59.371Z,9.00
2023-05-01T23:47:54.641Z,8.70
2023-05-01T23:50:25.800Z,8.60
2023-05-01T23:53:39.492Z,8.00
2023-05-01T23:56:11.319Z,8.40
2023-05-01T23:59:24.189Z,7.40
